sensor_id;sensor_type;location;lat;lon;timestamp;temperature;humidity
11664;DHT22;72375;59.302;18.204;2023-09-19T00:01:04;17.40;99.90
11664;DHT22;72375;59.302;18.204;2023-09-19T00:03:53;17.40;99.90
11664;DHT22;72375;59.302;18.204;2023-09-19T00:06:39;17.40;99.90
11664;DHT22;72375;59.302;18.204;2023-09-19T00:09:24;17.40;99.90
11664;DHT22;72375;59.302;18.204;2023-09-19T00:12:12;17.40;99.90
11664;DHT22;72375;59.302;18.204;2023-09-19T00:14:57;17.40;99.90
11664;DHT22;72375;59.302;18.204;2023-09-19T00:17:45;17.40;99.90
11664;DHT22;72375;59.302;18.204;2023-09-19T00:20:35;17.40;99.90
11664;DHT22;72375;59.302;18.204;2023-09-19T00:23:21;17.40;99.90
11664;DHT22;72375;59.302;18.204;2023-09-19T00:26:06;17.40;99.90
11664;DHT22;72375;59.302;18.204;2023-09-19T00:28:52;17.50;99.90
11664;DHT22;72375;59.302;18.204;2023-09-19T00:31:38;17.40;99.90
11664;DHT22;72375;59.302;18.204;2023-09-19T00:34:23;17.50;99.90
11664;DHT22;72375;59.302;18.204;2023-09-19T00:37:10;17.50;99.90
11664;DHT22;72375;59.302;18.204;2023-09-19T00:39:57;17.50;99.90
11664;DHT22;72375;59.302;18.204;2023-09-19T00:42:42;17.50;99.90
11664;DHT22;72375;59.302;18.204;2023-09-19T00:45:28;17.60;99.90
11664;DHT22;72375;59.302;18.204;2023-09-19T00:48:15;17.50;99.90
11664;DHT22;72375;59.302;18.204;2023-09-19T00:51:04;17.60;99.90
11664;DHT22;72375;59.302;18.204;2023-09-19T00:53:51;17.50;99.90
11664;DHT22;72375;59.302;18.204;2023-09-19T00:56:37;17.60;99.90
11664;DHT22;72375;59.302;18.204;2023-09-19T00:59:24;17.60;99.90
11664;DHT22;72375;59.302;18.204;2023-09-19T01:02:10;17.60;99.90
11664;DHT22;72375;59.302;18.204;2023-09-19T01:04:58;17.60;99.90
11664;DHT22;72375;59.302;18.204;2023-09-19T01:07:44;17.60;99.90
11664;DHT22;72375;59.302;18.204;2023-09-19T01:10:31;17.60;99.90
11664;DHT22;72375;59.302;18.204;2023-09-19T01:13:23;17.60;99.90
11664;DHT22;72375;59.302;18.204;2023-09-19T01:16:21;17.60;99.90
11664;DHT22;72375;59.302;18.204;2023-09-19T01:19:34;17.70;99.90
11664;DHT22;72375;59.302;18.204;2023-09-19T01:22:37;17.60;99.90
11664;DHT22;72375;59.302;18.204;2023-09-19T01:26:10;17.70;99.90
11664;DHT22;72375;59.302;18.204;2023-09-19T01:29:13;17.60;99.90
11664;DHT22;72375;59.302;18.204;2023-09-19T01:32:02;17.60;99.90
11664;DHT22;72375;59.302;18.204;2023-09-19T01:34:51;17.70;99.90
11664;DHT22;72375;59.302;18.204;2023-09-19T01:37:37;17.70;99.90
11664;DHT22;72375;59.302;18.204;2023-09-19T01:40:23;17.70;99.90
11664;DHT22;72375;59.302;18.204;2023-09-19T01:43:17;17.70;99.90
11664;DHT22;72375;59.302;18.204;2023-09-19T01:46:12;17.70;99.90
11664;DHT22;72375;59.302;18.204;2023-09-19T01:49:11;17.70;99.90
11664;DHT22;72375;59.302;18.204;2023-09-19T01:52:04;17.70;99.90
11664;DHT22;72375;59.302;18.204;2023-09-19T01:54:52;17.70;99.90
11664;DHT22;72375;59.302;18.204;2023-09-19T01:57:44;17.70;99.90
11664;DHT22;72375;59.302;18.204;2023-09-19T02:00:33;17.80;99.90
11664;DHT22;72375;59.302;18.204;2023-09-19T02:03:21;17.70;99.90
11664;DHT22;72375;59.302;18.204;2023-09-19T02:06:13;17.70;99.90
11664;DHT22;72375;59.302;18.204;2023-09-19T02:09:00;17.70;99.90
11664;DHT22;72375;59.302;18.204;2023-09-19T02:11:47;17.70;99.90
11664;DHT22;72375;59.302;18.204;2023-09-19T02:14:33;17.80;99.90
11664;DHT22;72375;59.302;18.204;2023-09-19T02:17:20;17.70;99.90
11664;DHT22;72375;59.302;18.204;2023-09-19T02:20:07;17.80;99.90
11664;DHT22;72375;59.302;18.204;2023-09-19T02:22:55;17.70;99.90
11664;DHT22;72375;59.302;18.204;2023-09-19T02:25:41;17.80;99.90
11664;DHT22;72375;59.302;18.204;2023-09-19T02:28:27;17.70;99.90
11664;DHT22;72375;59.302;18.204;2023-09-19T02:31:14;17.80;99.90
11664;DHT22;72375;59.302;18.204;2023-09-19T02:34:00;17.80;99.90
11664;DHT22;72375;59.302;18.204;2023-09-19T02:36:46;17.80;99.90
11664;DHT22;72375;59.302;18.204;2023-09-19T02:39:33;17.80;99.90
11664;DHT22;72375;59.302;18.204;2023-09-19T02:42:19;17.80;99.90
11664;DHT22;72375;59.302;18.204;2023-09-19T02:45:05;17.80;99.90
11664;DHT22;72375;59.302;18.204;2023-09-19T02:47:51;17.80;99.90
11664;DHT22;72375;59.302;18.204;2023-09-19T02:50:36;17.80;99.90
11664;DHT22;72375;59.302;18.204;2023-09-19T02:53:24;17.80;99.90
11664;DHT22;72375;59.302;18.204;2023-09-19T02:56:11;17.90;99.90
11664;DHT22;72375;59.302;18.204;2023-09-19T02:58:58;17.90;99.90
11664;DHT22;72375;59.302;18.204;2023-09-19T03:01:45;17.90;99.90
11664;DHT22;72375;59.302;18.204;2023-09-19T03:04:32;17.90;99.90
11664;DHT22;72375;59.302;18.204;2023-09-19T03:07:19;17.90;99.90
11664;DHT22;72375;59.302;18.204;2023-09-19T03:10:06;17.90;99.90
11664;DHT22;72375;59.302;18.204;2023-09-19T03:12:54;17.90;99.90
11664;DHT22;72375;59.302;18.204;2023-09-19T03:15:41;17.90;99.90
11664;DHT22;72375;59.302;18.204;2023-09-19T03:18:28;17.90;99.90
11664;DHT22;72375;59.302;18.204;2023-09-19T03:21:13;17.90;99.90
11664;DHT22;72375;59.302;18.204;2023-09-19T03:23:59;17.90;99.90
11664;DHT22;72375;59.302;18.204;2023-09-19T03:26:45;17.90;99.90
11664;DHT22;72375;59.302;18.204;2023-09-19T03:29:32;17.90;99.90
11664;DHT22;72375;59.302;18.204;2023-09-19T03:32:18;17.90;99.90
11664;DHT22;72375;59.302;18.204;2023-09-19T03:35:04;17.90;99.90
11664;DHT22;72375;59.302;18.204;2023-09-19T03:37:50;17.90;99.90
11664;DHT22;72375;59.302;18.204;2023-09-19T03:40:36;18.00;99.90
11664;DHT22;72375;59.302;18.204;2023-09-19T03:43:23;17.90;99.90
11664;DHT22;72375;59.302;18.204;2023-09-19T03:46:10;17.90;99.90
11664;DHT22;72375;59.302;18.204;2023-09-19T03:48:57;17.90;99.90
11664;DHT22;72375;59.302;18.204;2023-09-19T03:51:42;17.90;99.90
11664;DHT22;72375;59.302;18.204;2023-09-19T03:54:28;17.90;99.90
11664;DHT22;72375;59.302;18.204;2023-09-19T03:57:14;17.90;99.90
11664;DHT22;72375;59.302;18.204;2023-09-19T04:00:06;18.00;99.90
11664;DHT22;72375;59.302;18.204;2023-09-19T04:02:56;17.90;99.90
11664;DHT22;72375;59.302;18.204;2023-09-19T04:05:42;17.90;99.90
11664;DHT22;72375;59.302;18.204;2023-09-19T04:08:28;17.90;99.90
11664;DHT22;72375;59.302;18.204;2023-09-19T04:11:14;17.90;99.90
11664;DHT22;72375;59.302;18.204;2023-09-19T04:14:02;17.90;99.90
11664;DHT22;72375;59.302;18.204;2023-09-19T04:16:47;17.90;99.90
11664;DHT22;72375;59.302;18.204;2023-09-19T04:19:35;17.90;99.90
11664;DHT22;72375;59.302;18.204;2023-09-19T04:22:20;17.90;99.90
11664;DHT22;72375;59.302;18.204;2023-09-19T04:25:06;17.90;99.90
11664;DHT22;72375;59.302;18.204;2023-09-19T04:27:52;17.90;99.90
11664;DHT22;72375;59.302;18.204;2023-09-19T04:30:38;18.00;99.90
11664;DHT22;72375;59.302;18.204;2023-09-19T04:33:25;17.90;99.90
11664;DHT22;72375;59.302;18.204;2023-09-19T04:36:12;17.90;99.90
11664;DHT22;72375;59.302;18.204;2023-09-19T04:38:58;17.90;99.90
11664;DHT22;72375;59.302;18.204;2023-09-19T04:41:44;17.90;99.90
11664;DHT22;72375;59.302;18.204;2023-09-19T04:44:32;17.90;99.90
11664;DHT22;72375;59.302;18.204;2023-09-19T04:47:18;17.90;99.90
11664;DHT22;72375;59.302;18.204;2023-09-19T04:50:05;17.90;99.90
11664;DHT22;72375;59.302;18.204;2023-09-19T04:52:53;17.90;99.90
11664;DHT22;72375;59.302;18.204;2023-09-19T04:55:39;17.90;99.90
11664;DHT22;72375;59.302;18.204;2023-09-19T04:58:24;17.90;99.90
11664;DHT22;72375;59.302;18.204;2023-09-19T05:01:10;18.00;99.90
11664;DHT22;72375;59.302;18.204;2023-09-19T05:03:56;17.90;99.90
11664;DHT22;72375;59.302;18.204;2023-09-19T05:06:42;18.00;99.90
11664;DHT22;72375;59.302;18.204;2023-09-19T05:09:29;18.00;99.90
11664;DHT22;72375;59.302;18.204;2023-09-19T05:12:18;18.00;99.90
11664;DHT22;72375;59.302;18.204;2023-09-19T05:15:05;18.00;99.90
11664;DHT22;72375;59.302;18.204;2023-09-19T05:17:51;18.00;99.90
11664;DHT22;72375;59.302;18.204;2023-09-19T05:20:39;18.00;99.90
11664;DHT22;72375;59.302;18.204;2023-09-19T05:23:24;18.00;99.90
11664;DHT22;72375;59.302;18.204;2023-09-19T05:26:12;18.20;99.90
11664;DHT22;72375;59.302;18.204;2023-09-19T05:29:00;18.10;99.90
11664;DHT22;72375;59.302;18.204;2023-09-19T05:31:48;18.10;99.90
11664;DHT22;72375;59.302;18.204;2023-09-19T05:34:34;18.10;99.90
11664;DHT22;72375;59.302;18.204;2023-09-19T05:37:19;18.10;99.90
11664;DHT22;72375;59.302;18.204;2023-09-19T05:40:06;18.10;99.90
11664;DHT22;72375;59.302;18.204;2023-09-19T05:42:56;18.10;99.90
11664;DHT22;72375;59.302;18.204;2023-09-19T05:45:42;18.10;99.90
11664;DHT22;72375;59.302;18.204;2023-09-19T05:48:27;18.20;99.90
11664;DHT22;72375;59.302;18.204;2023-09-19T05:51:13;18.20;99.90
11664;DHT22;72375;59.302;18.204;2023-09-19T05:53:59;18.20;99.90
11664;DHT22;72375;59.302;18.204;2023-09-19T05:56:45;18.20;99.90
11664;DHT22;72375;59.302;18.204;2023-09-19T05:59:32;18.30;99.90
11664;DHT22;72375;59.302;18.204;2023-09-19T06:02:18;18.30;99.90
11664;DHT22;72375;59.302;18.204;2023-09-19T06:05:04;18.30;99.90
11664;DHT22;72375;59.302;18.204;2023-09-19T06:07:54;18.40;99.90
11664;DHT22;72375;59.302;18.204;2023-09-19T06:10:40;18.40;99.90
11664;DHT22;72375;59.302;18.204;2023-09-19T06:13:27;18.40;99.90
11664;DHT22;72375;59.302;18.204;2023-09-19T06:16:14;18.40;99.90
11664;DHT22;72375;59.302;18.204;2023-09-19T06:19:00;18.30;99.90
11664;DHT22;72375;59.302;18.204;2023-09-19T06:21:46;18.30;99.90
11664;DHT22;72375;59.302;18.204;2023-09-19T06:24:32;18.40;99.90
11664;DHT22;72375;59.302;18.204;2023-09-19T06:27:18;18.40;99.90
11664;DHT22;72375;59.302;18.204;2023-09-19T06:30:05;18.40;99.90
11664;DHT22;72375;59.302;18.204;2023-09-19T06:32:57;18.40;99.90
11664;DHT22;72375;59.302;18.204;2023-09-19T06:35:43;18.40;99.90
11664;DHT22;72375;59.302;18.204;2023-09-19T06:38:29;18.40;99.90
11664;DHT22;72375;59.302;18.204;2023-09-19T06:41:15;18.40;99.90
11664;DHT22;72375;59.302;18.204;2023-09-19T06:44:01;18.40;99.90
11664;DHT22;72375;59.302;18.204;2023-09-19T06:46:47;18.50;99.90
11664;DHT22;72375;59.302;18.204;2023-09-19T06:49:37;18.50;99.90
11664;DHT22;72375;59.302;18.204;2023-09-19T06:52:22;18.50;99.90
11664;DHT22;72375;59.302;18.204;2023-09-19T06:55:10;18.50;99.90
11664;DHT22;72375;59.302;18.204;2023-09-19T06:57:57;18.50;99.90
11664;DHT22;72375;59.302;18.204;2023-09-19T07:00:43;18.50;99.90
11664;DHT22;72375;59.302;18.204;2023-09-19T07:03:30;18.50;99.90
11664;DHT22;72375;59.302;18.204;2023-09-19T07:06:19;18.50;99.90
11664;DHT22;72375;59.302;18.204;2023-09-19T07:09:04;18.50;99.90
11664;DHT22;72375;59.302;18.204;2023-09-19T07:11:50;18.40;99.90
11664;DHT22;72375;59.302;18.204;2023-09-19T07:14:36;18.40;99.90
11664;DHT22;72375;59.302;18.204;2023-09-19T07:17:21;18.40;99.90
11664;DHT22;72375;59.302;18.204;2023-09-19T07:20:09;18.40;99.90
11664;DHT22;72375;59.302;18.204;2023-09-19T07:23:02;18.40;99.90
11664;DHT22;72375;59.302;18.204;2023-09-19T07:25:48;18.40;99.90
11664;DHT22;72375;59.302;18.204;2023-09-19T07:28:34;18.40;99.90
11664;DHT22;72375;59.302;18.204;2023-09-19T07:31:20;18.40;99.90
11664;DHT22;72375;59.302;18.204;2023-09-19T07:34:07;18.40;99.90
11664;DHT22;72375;59.302;18.204;2023-09-19T07:36:54;18.40;99.90
11664;DHT22;72375;59.302;18.204;2023-09-19T07:39:42;18.40;99.90
11664;DHT22;72375;59.302;18.204;2023-09-19T07:42:29;18.40;99.90
11664;DHT22;72375;59.302;18.204;2023-09-19T07:45:16;18.40;99.90
11664;DHT22;72375;59.302;18.204;2023-09-19T07:48:02;18.40;99.90
11664;DHT22;72375;59.302;18.204;2023-09-19T07:50:50;18.40;99.90
11664;DHT22;72375;59.302;18.204;2023-09-19T07:53:35;18.40;99.90
11664;DHT22;72375;59.302;18.204;2023-09-19T07:56:23;18.50;99.90
11664;DHT22;72375;59.302;18.204;2023-09-19T07:59:10;18.50;99.90
11664;DHT22;72375;59.302;18.204;2023-09-19T08:01:56;18.50;99.90
11664;DHT22;72375;59.302;18.204;2023-09-19T08:04:42;18.50;99.90
11664;DHT22;72375;59.302;18.204;2023-09-19T08:07:28;18.50;99.90
11664;DHT22;72375;59.302;18.204;2023-09-19T08:10:15;18.50;99.90
11664;DHT22;72375;59.302;18.204;2023-09-19T08:13:04;18.60;99.90
11664;DHT22;72375;59.302;18.204;2023-09-19T08:15:50;18.60;99.90
11664;DHT22;72375;59.302;18.204;2023-09-19T08:18:37;18.70;99.90
11664;DHT22;72375;59.302;18.204;2023-09-19T08:21:24;18.70;99.90
11664;DHT22;72375;59.302;18.204;2023-09-19T08:24:12;18.70;99.90
11664;DHT22;72375;59.302;18.204;2023-09-19T08:26:58;18.80;99.90
11664;DHT22;72375;59.302;18.204;2023-09-19T08:29:46;18.80;99.90
11664;DHT22;72375;59.302;18.204;2023-09-19T08:32:32;18.70;99.90
11664;DHT22;72375;59.302;18.204;2023-09-19T08:35:17;18.80;99.90
11664;DHT22;72375;59.302;18.204;2023-09-19T08:38:03;18.80;99.90
11664;DHT22;72375;59.302;18.204;2023-09-19T08:40:50;18.80;99.90
11664;DHT22;72375;59.302;18.204;2023-09-19T08:43:35;18.80;99.90
11664;DHT22;72375;59.302;18.204;2023-09-19T08:46:25;18.80;99.90
11664;DHT22;72375;59.302;18.204;2023-09-19T08:49:19;18.80;99.90
11664;DHT22;72375;59.302;18.204;2023-09-19T08:52:25;18.80;99.90
11664;DHT22;72375;59.302;18.204;2023-09-19T08:55:13;18.80;99.90
11664;DHT22;72375;59.302;18.204;2023-09-19T08:58:08;18.90;99.90
11664;DHT22;72375;59.302;18.204;2023-09-19T09:00:56;18.90;99.90
11664;DHT22;72375;59.302;18.204;2023-09-19T09:03:47;18.90;99.90
11664;DHT22;72375;59.302;18.204;2023-09-19T09:06:35;18.90;99.90
11664;DHT22;72375;59.302;18.204;2023-09-19T09:09:23;18.90;99.90
11664;DHT22;72375;59.302;18.204;2023-09-19T09:12:12;19.00;99.90
11664;DHT22;72375;59.302;18.204;2023-09-19T09:14:58;19.10;99.90
11664;DHT22;72375;59.302;18.204;2023-09-19T09:17:43;19.10;99.90
11664;DHT22;72375;59.302;18.204;2023-09-19T09:20:34;19.30;99.90
11664;DHT22;72375;59.302;18.204;2023-09-19T09:23:19;19.60;99.90
11664;DHT22;72375;59.302;18.204;2023-09-19T09:26:05;19.80;99.90
11664;DHT22;72375;59.302;18.204;2023-09-19T09:28:51;19.80;99.90
11664;DHT22;72375;59.302;18.204;2023-09-19T09:31:38;19.90;99.90
11664;DHT22;72375;59.302;18.204;2023-09-19T09:34:32;19.90;99.90
11664;DHT22;72375;59.302;18.204;2023-09-19T09:37:20;20.00;99.90
11664;DHT22;72375;59.302;18.204;2023-09-19T09:40:06;19.90;99.90
11664;DHT22;72375;59.302;18.204;2023-09-19T09:43:27;20.00;99.90
11664;DHT22;72375;59.302;18.204;2023-09-19T09:46:14;20.10;99.90
11664;DHT22;72375;59.302;18.204;2023-09-19T09:49:23;20.10;99.90
11664;DHT22;72375;59.302;18.204;2023-09-19T09:52:11;20.30;99.90
11664;DHT22;72375;59.302;18.204;2023-09-19T09:55:03;20.30;99.90
11664;DHT22;72375;59.302;18.204;2023-09-19T09:58:16;20.20;99.90
11664;DHT22;72375;59.302;18.204;2023-09-19T10:01:03;20.20;99.90
11664;DHT22;72375;59.302;18.204;2023-09-19T10:03:57;20.30;99.90
11664;DHT22;72375;59.302;18.204;2023-09-19T10:06:44;20.30;99.90
11664;DHT22;72375;59.302;18.204;2023-09-19T10:09:45;20.30;99.90
11664;DHT22;72375;59.302;18.204;2023-09-19T10:12:33;20.30;99.90
11664;DHT22;72375;59.302;18.204;2023-09-19T10:15:19;20.30;99.90
11664;DHT22;72375;59.302;18.204;2023-09-19T10:18:05;20.30;99.90
11664;DHT22;72375;59.302;18.204;2023-09-19T10:20:53;20.30;99.90
11664;DHT22;72375;59.302;18.204;2023-09-19T10:23:40;20.30;99.90
11664;DHT22;72375;59.302;18.204;2023-09-19T10:26:28;20.30;99.90
11664;DHT22;72375;59.302;18.204;2023-09-19T10:29:18;20.40;99.90
11664;DHT22;72375;59.302;18.204;2023-09-19T10:32:05;20.60;99.90
11664;DHT22;72375;59.302;18.204;2023-09-19T10:34:54;20.80;99.90
11664;DHT22;72375;59.302;18.204;2023-09-19T10:37:41;21.00;99.90
11664;DHT22;72375;59.302;18.204;2023-09-19T10:40:29;21.20;99.90
11664;DHT22;72375;59.302;18.204;2023-09-19T10:43:20;21.30;99.90
11664;DHT22;72375;59.302;18.204;2023-09-19T10:46:08;21.30;99.90
11664;DHT22;72375;59.302;18.204;2023-09-19T10:48:58;21.40;99.90
11664;DHT22;72375;59.302;18.204;2023-09-19T10:51:45;21.70;99.90
11664;DHT22;72375;59.302;18.204;2023-09-19T10:54:35;21.80;99.90
11664;DHT22;72375;59.302;18.204;2023-09-19T10:57:24;21.90;99.90
11664;DHT22;72375;59.302;18.204;2023-09-19T11:00:12;21.80;99.90
11664;DHT22;72375;59.302;18.204;2023-09-19T11:03:19;21.90;99.90
11664;DHT22;72375;59.302;18.204;2023-09-19T11:06:10;22.10;99.90
11664;DHT22;72375;59.302;18.204;2023-09-19T11:09:02;22.50;99.90
11664;DHT22;72375;59.302;18.204;2023-09-19T11:12:01;22.80;99.90
11664;DHT22;72375;59.302;18.204;2023-09-19T11:14:46;23.00;99.90
11664;DHT22;72375;59.302;18.204;2023-09-19T11:17:32;23.20;99.90
11664;DHT22;72375;59.302;18.204;2023-09-19T11:20:24;23.40;99.90
11664;DHT22;72375;59.302;18.204;2023-09-19T11:23:23;23.80;99.90
11664;DHT22;72375;59.302;18.204;2023-09-19T11:26:40;24.10;99.90
11664;DHT22;72375;59.302;18.204;2023-09-19T11:29:28;24.70;99.90
11664;DHT22;72375;59.302;18.204;2023-09-19T11:32:15;25.30;99.90
11664;DHT22;72375;59.302;18.204;2023-09-19T11:35:07;25.70;99.90
11664;DHT22;72375;59.302;18.204;2023-09-19T11:38:03;26.10;99.90
11664;DHT22;72375;59.302;18.204;2023-09-19T11:44:33;26.80;99.90
11664;DHT22;72375;59.302;18.204;2023-09-19T11:47:22;27.00;99.90
11664;DHT22;72375;59.302;18.204;2023-09-19T11:50:09;27.10;99.00
11664;DHT22;72375;59.302;18.204;2023-09-19T11:52:55;27.10;97.60
11664;DHT22;72375;59.302;18.204;2023-09-19T11:55:43;27.40;98.10
11664;DHT22;72375;59.302;18.204;2023-09-19T11:58:30;27.70;98.60
11664;DHT22;72375;59.302;18.204;2023-09-19T12:01:22;28.10;97.00
11664;DHT22;72375;59.302;18.204;2023-09-19T12:04:11;28.30;96.20
11664;DHT22;72375;59.302;18.204;2023-09-19T12:06:58;28.50;93.60
11664;DHT22;72375;59.302;18.204;2023-09-19T12:09:45;28.70;92.50
11664;DHT22;72375;59.302;18.204;2023-09-19T12:12:33;28.90;90.30
11664;DHT22;72375;59.302;18.204;2023-09-19T12:15:23;29.00;90.10
11664;DHT22;72375;59.302;18.204;2023-09-19T12:18:26;29.00;87.90
11664;DHT22;72375;59.302;18.204;2023-09-19T12:21:22;28.60;83.10
11664;DHT22;72375;59.302;18.204;2023-09-19T12:24:12;28.10;85.90
11664;DHT22;72375;59.302;18.204;2023-09-19T12:27:02;27.50;85.00
11664;DHT22;72375;59.302;18.204;2023-09-19T12:29:50;27.20;86.00
11664;DHT22;72375;59.302;18.204;2023-09-19T12:32:40;27.40;86.70
11664;DHT22;72375;59.302;18.204;2023-09-19T12:35:29;27.60;88.70
11664;DHT22;72375;59.302;18.204;2023-09-19T12:38:25;27.60;90.50
11664;DHT22;72375;59.302;18.204;2023-09-19T12:41:12;27.30;90.70
11664;DHT22;72375;59.302;18.204;2023-09-19T12:43:57;27.20;91.50
11664;DHT22;72375;59.302;18.204;2023-09-19T12:46:46;27.10;90.90
11664;DHT22;72375;59.302;18.204;2023-09-19T12:49:31;27.00;89.60
11664;DHT22;72375;59.302;18.204;2023-09-19T12:52:17;27.10;89.20
11664;DHT22;72375;59.302;18.204;2023-09-19T12:55:04;27.10;86.70
11664;DHT22;72375;59.302;18.204;2023-09-19T12:58:08;26.90;83.70
11664;DHT22;72375;59.302;18.204;2023-09-19T13:00:55;26.70;82.20
11664;DHT22;72375;59.302;18.204;2023-09-19T13:03:42;26.20;81.80
11664;DHT22;72375;59.302;18.204;2023-09-19T13:06:35;25.70;82.30
11664;DHT22;72375;59.302;18.204;2023-09-19T13:09:23;25.40;84.20
11664;DHT22;72375;59.302;18.204;2023-09-19T13:12:37;25.20;84.80
11664;DHT22;72375;59.302;18.204;2023-09-19T13:15:22;24.90;88.00
11664;DHT22;72375;59.302;18.204;2023-09-19T13:18:11;24.80;89.50
11664;DHT22;72375;59.302;18.204;2023-09-19T13:21:09;24.70;87.10
11664;DHT22;72375;59.302;18.204;2023-09-19T13:24:19;24.50;87.80
11664;DHT22;72375;59.302;18.204;2023-09-19T13:27:05;24.30;85.80
11664;DHT22;72375;59.302;18.204;2023-09-19T13:29:50;24.00;84.30
11664;DHT22;72375;59.302;18.204;2023-09-19T13:32:36;23.80;84.80
11664;DHT22;72375;59.302;18.204;2023-09-19T13:35:23;23.70;84.50
11664;DHT22;72375;59.302;18.204;2023-09-19T13:38:10;23.50;84.00
11664;DHT22;72375;59.302;18.204;2023-09-19T13:40:56;23.30;83.40
11664;DHT22;72375;59.302;18.204;2023-09-19T13:43:45;23.20;86.10
11664;DHT22;72375;59.302;18.204;2023-09-19T13:46:33;23.20;86.60
11664;DHT22;72375;59.302;18.204;2023-09-19T13:49:20;22.90;82.70
11664;DHT22;72375;59.302;18.204;2023-09-19T13:52:05;22.70;81.80
11664;DHT22;72375;59.302;18.204;2023-09-19T13:54:53;22.50;81.70
11664;DHT22;72375;59.302;18.204;2023-09-19T13:57:40;22.40;81.70
11664;DHT22;72375;59.302;18.204;2023-09-19T14:00:30;22.20;82.20
11664;DHT22;72375;59.302;18.204;2023-09-19T14:03:18;22.10;87.30
11664;DHT22;72375;59.302;18.204;2023-09-19T14:06:05;21.90;89.00
11664;DHT22;72375;59.302;18.204;2023-09-19T14:08:50;21.70;91.10
11664;DHT22;72375;59.302;18.204;2023-09-19T14:11:37;21.50;91.60
11664;DHT22;72375;59.302;18.204;2023-09-19T14:14:23;21.40;92.10
11664;DHT22;72375;59.302;18.204;2023-09-19T14:17:08;21.30;92.60
11664;DHT22;72375;59.302;18.204;2023-09-19T14:19:54;21.20;93.20
11664;DHT22;72375;59.302;18.204;2023-09-19T14:22:41;21.20;93.20
11664;DHT22;72375;59.302;18.204;2023-09-19T14:25:27;21.00;93.40
11664;DHT22;72375;59.302;18.204;2023-09-19T14:28:14;20.90;93.60
11664;DHT22;72375;59.302;18.204;2023-09-19T14:31:04;20.80;93.90
11664;DHT22;72375;59.302;18.204;2023-09-19T14:33:53;20.80;93.80
11664;DHT22;72375;59.302;18.204;2023-09-19T14:36:40;20.70;94.10
11664;DHT22;72375;59.302;18.204;2023-09-19T14:39:26;20.70;94.50
11664;DHT22;72375;59.302;18.204;2023-09-19T14:42:12;20.60;94.70
11664;DHT22;72375;59.302;18.204;2023-09-19T14:45:03;20.60;95.20
11664;DHT22;72375;59.302;18.204;2023-09-19T14:47:51;20.50;94.70
11664;DHT22;72375;59.302;18.204;2023-09-19T14:50:39;20.50;94.90
11664;DHT22;72375;59.302;18.204;2023-09-19T14:53:24;20.40;95.10
11664;DHT22;72375;59.302;18.204;2023-09-19T14:56:12;20.30;95.40
11664;DHT22;72375;59.302;18.204;2023-09-19T14:59:02;20.30;95.70
11664;DHT22;72375;59.302;18.204;2023-09-19T15:01:50;20.20;95.50
11664;DHT22;72375;59.302;18.204;2023-09-19T15:04:35;20.10;95.80
11664;DHT22;72375;59.302;18.204;2023-09-19T15:07:21;20.00;95.00
11664;DHT22;72375;59.302;18.204;2023-09-19T15:10:08;19.90;95.20
11664;DHT22;72375;59.302;18.204;2023-09-19T15:12:53;19.80;95.60
11664;DHT22;72375;59.302;18.204;2023-09-19T15:15:39;19.70;95.70
11664;DHT22;72375;59.302;18.204;2023-09-19T15:18:26;19.60;96.00
11664;DHT22;72375;59.302;18.204;2023-09-19T15:21:12;19.50;96.00
11664;DHT22;72375;59.302;18.204;2023-09-19T15:23:58;19.30;96.20
11664;DHT22;72375;59.302;18.204;2023-09-19T15:26:44;19.30;96.40
11664;DHT22;72375;59.302;18.204;2023-09-19T15:29:30;19.10;96.40
11664;DHT22;72375;59.302;18.204;2023-09-19T15:32:17;19.00;96.60
11664;DHT22;72375;59.302;18.204;2023-09-19T15:35:04;18.90;96.70
11664;DHT22;72375;59.302;18.204;2023-09-19T15:37:51;18.90;96.80
11664;DHT22;72375;59.302;18.204;2023-09-19T15:40:46;18.80;96.70
11664;DHT22;72375;59.302;18.204;2023-09-19T15:43:32;18.60;96.70
11664;DHT22;72375;59.302;18.204;2023-09-19T15:46:19;18.60;97.00
11664;DHT22;72375;59.302;18.204;2023-09-19T15:49:05;18.50;97.20
11664;DHT22;72375;59.302;18.204;2023-09-19T15:51:53;18.50;97.30
11664;DHT22;72375;59.302;18.204;2023-09-19T15:54:39;18.40;97.10
11664;DHT22;72375;59.302;18.204;2023-09-19T15:57:28;18.30;97.20
11664;DHT22;72375;59.302;18.204;2023-09-19T16:00:15;18.20;97.20
11664;DHT22;72375;59.302;18.204;2023-09-19T16:03:03;18.10;97.30
11664;DHT22;72375;59.302;18.204;2023-09-19T16:05:49;18.00;97.40
11664;DHT22;72375;59.302;18.204;2023-09-19T16:08:39;17.90;97.30
11664;DHT22;72375;59.302;18.204;2023-09-19T16:11:26;17.80;97.40
11664;DHT22;72375;59.302;18.204;2023-09-19T16:14:12;17.80;97.60
11664;DHT22;72375;59.302;18.204;2023-09-19T16:16:57;17.70;97.70
11664;DHT22;72375;59.302;18.204;2023-09-19T16:19:44;17.60;97.90
11664;DHT22;72375;59.302;18.204;2023-09-19T16:22:29;17.50;98.00
11664;DHT22;72375;59.302;18.204;2023-09-19T16:25:17;17.40;98.10
11664;DHT22;72375;59.302;18.204;2023-09-19T16:28:03;17.40;98.20
11664;DHT22;72375;59.302;18.204;2023-09-19T16:30:50;17.30;98.30
11664;DHT22;72375;59.302;18.204;2023-09-19T16:33:36;17.20;98.40
11664;DHT22;72375;59.302;18.204;2023-09-19T16:36:23;17.20;98.60
11664;DHT22;72375;59.302;18.204;2023-09-19T16:39:09;17.10;98.70
11664;DHT22;72375;59.302;18.204;2023-09-19T16:41:56;17.00;98.70
11664;DHT22;72375;59.302;18.204;2023-09-19T16:44:42;16.90;98.80
11664;DHT22;72375;59.302;18.204;2023-09-19T16:47:27;16.90;98.80
11664;DHT22;72375;59.302;18.204;2023-09-19T16:50:13;16.80;98.80
11664;DHT22;72375;59.302;18.204;2023-09-19T16:52:58;16.70;98.90
11664;DHT22;72375;59.302;18.204;2023-09-19T16:55:44;16.70;98.90
11664;DHT22;72375;59.302;18.204;2023-09-19T16:58:32;16.60;99.00
11664;DHT22;72375;59.302;18.204;2023-09-19T17:01:18;16.50;99.20
11664;DHT22;72375;59.302;18.204;2023-09-19T17:04:04;16.60;99.20
11664;DHT22;72375;59.302;18.204;2023-09-19T17:06:52;16.50;99.30
11664;DHT22;72375;59.302;18.204;2023-09-19T17:09:38;16.50;99.40
11664;DHT22;72375;59.302;18.204;2023-09-19T17:12:24;16.40;99.40
11664;DHT22;72375;59.302;18.204;2023-09-19T17:15:12;16.30;99.80
11664;DHT22;72375;59.302;18.204;2023-09-19T17:17:58;16.30;99.40
11664;DHT22;72375;59.302;18.204;2023-09-19T17:20:44;16.20;99.50
11664;DHT22;72375;59.302;18.204;2023-09-19T17:23:30;16.10;99.50
11664;DHT22;72375;59.302;18.204;2023-09-19T17:26:18;16.10;99.50
11664;DHT22;72375;59.302;18.204;2023-09-19T17:29:05;16.00;99.60